sensor_id;sensor_type;location;lat;lon;timestamp;P1;durP1;ratioP1;P2;durP2;ratioP2
72601;SDS011;60644;55.858;37.390;2024-02-21T00:00:45;8.65;;;3.45;;
72601;SDS011;60644;55.858;37.390;2024-02-21T00:03:11;9.40;;;3.70;;
72601;SDS011;60644;55.858;37.390;2024-02-21T00:05:36;10.88;;;3.90;;
72601;SDS011;60644;55.858;37.390;2024-02-21T00:08:02;13.27;;;4.80;;
72601;SDS011;60644;55.858;37.390;2024-02-21T00:10:28;12.70;;;5.43;;
72601;SDS011;60644;55.858;37.390;2024-02-21T00:12:54;8.67;;;3.77;;
72601;SDS011;60644;55.858;37.390;2024-02-21T00:15:20;10.20;;;3.63;;
72601;SDS011;60644;55.858;37.390;2024-02-21T00:17:46;12.57;;;4.40;;
72601;SDS011;60644;55.858;37.390;2024-02-21T00:20:12;7.87;;;3.20;;
72601;SDS011;60644;55.858;37.390;2024-02-21T00:22:38;11.32;;;4.50;;
72601;SDS011;60644;55.858;37.390;2024-02-21T00:25:03;9.80;;;3.80;;
72601;SDS011;60644;55.858;37.390;2024-02-21T00:27:29;12.82;;;4.88;;
72601;SDS011;60644;55.858;37.390;2024-02-21T00:29:55;10.17;;;3.53;;
72601;SDS011;60644;55.858;37.390;2024-02-21T00:32:20;6.97;;;2.70;;
72601;SDS011;60644;55.858;37.390;2024-02-21T00:34:46;11.00;;;4.57;;
72601;SDS011;60644;55.858;37.390;2024-02-21T00:37:12;10.83;;;4.30;;
72601;SDS011;60644;55.858;37.390;2024-02-21T00:39:37;10.48;;;4.05;;
72601;SDS011;60644;55.858;37.390;2024-02-21T00:42:03;11.07;;;3.60;;
72601;SDS011;60644;55.858;37.390;2024-02-21T00:44:29;9.52;;;4.10;;
72601;SDS011;60644;55.858;37.390;2024-02-21T00:46:54;11.00;;;5.03;;
72601;SDS011;60644;55.858;37.390;2024-02-21T00:49:21;11.02;;;4.72;;
72601;SDS011;60644;55.858;37.390;2024-02-21T00:51:46;10.43;;;4.60;;
72601;SDS011;60644;55.858;37.390;2024-02-21T00:54:12;11.10;;;3.65;;
72601;SDS011;60644;55.858;37.390;2024-02-21T00:56:38;9.73;;;4.15;;
72601;SDS011;60644;55.858;37.390;2024-02-21T00:59:03;8.77;;;3.85;;
72601;SDS011;60644;55.858;37.390;2024-02-21T01:01:29;11.03;;;4.60;;
72601;SDS011;60644;55.858;37.390;2024-02-21T01:03:55;13.10;;;5.03;;
72601;SDS011;60644;55.858;37.390;2024-02-21T01:06:20;12.77;;;5.20;;
72601;SDS011;60644;55.858;37.390;2024-02-21T01:08:46;10.70;;;4.38;;
72601;SDS011;60644;55.858;37.390;2024-02-21T01:11:16;12.07;;;5.20;;
72601;SDS011;60644;55.858;37.390;2024-02-21T01:13:42;11.00;;;4.55;;
72601;SDS011;60644;55.858;37.390;2024-02-21T01:16:08;11.82;;;5.25;;
72601;SDS011;60644;55.858;37.390;2024-02-21T01:18:34;11.33;;;4.13;;
72601;SDS011;60644;55.858;37.390;2024-02-21T01:21:00;13.45;;;6.28;;
72601;SDS011;60644;55.858;37.390;2024-02-21T01:23:25;11.17;;;4.93;;
72601;SDS011;60644;55.858;37.390;2024-02-21T01:25:51;10.95;;;4.93;;
72601;SDS011;60644;55.858;37.390;2024-02-21T01:28:17;11.77;;;4.90;;
72601;SDS011;60644;55.858;37.390;2024-02-21T01:30:43;10.60;;;4.43;;
72601;SDS011;60644;55.858;37.390;2024-02-21T01:33:09;6.60;;;2.63;;
72601;SDS011;60644;55.858;37.390;2024-02-21T01:35:35;12.07;;;5.68;;
72601;SDS011;60644;55.858;37.390;2024-02-21T01:38:01;11.90;;;5.37;;
72601;SDS011;60644;55.858;37.390;2024-02-21T01:40:27;11.00;;;4.95;;
72601;SDS011;60644;55.858;37.390;2024-02-21T01:42:54;12.53;;;5.67;;
72601;SDS011;60644;55.858;37.390;2024-02-21T01:45:20;12.70;;;5.00;;
72601;SDS011;60644;55.858;37.390;2024-02-21T01:47:46;9.93;;;3.90;;
72601;SDS011;60644;55.858;37.390;2024-02-21T01:50:11;9.27;;;3.92;;
72601;SDS011;60644;55.858;37.390;2024-02-21T01:52:37;12.35;;;4.90;;
72601;SDS011;60644;55.858;37.390;2024-02-21T01:55:04;13.70;;;5.63;;
72601;SDS011;60644;55.858;37.390;2024-02-21T01:57:30;12.70;;;5.90;;
72601;SDS011;60644;55.858;37.390;2024-02-21T01:59:56;10.27;;;4.57;;
72601;SDS011;60644;55.858;37.390;2024-02-21T02:02:21;10.30;;;4.13;;
72601;SDS011;60644;55.858;37.390;2024-02-21T02:04:47;11.80;;;4.88;;
72601;SDS011;60644;55.858;37.390;2024-02-21T02:07:13;8.33;;;4.20;;
72601;SDS011;60644;55.858;37.390;2024-02-21T02:09:38;13.73;;;5.80;;
72601;SDS011;60644;55.858;37.390;2024-02-21T02:12:04;8.80;;;3.58;;
72601;SDS011;60644;55.858;37.390;2024-02-21T02:14:30;13.63;;;5.60;;
72601;SDS011;60644;55.858;37.390;2024-02-21T02:16:56;13.50;;;6.47;;
72601;SDS011;60644;55.858;37.390;2024-02-21T02:19:21;11.37;;;4.63;;
72601;SDS011;60644;55.858;37.390;2024-02-21T02:21:49;13.15;;;5.47;;
72601;SDS011;60644;55.858;37.390;2024-02-21T02:24:19;9.93;;;4.30;;
72601;SDS011;60644;55.858;37.390;2024-02-21T02:26:45;11.98;;;4.55;;
72601;SDS011;60644;55.858;37.390;2024-02-21T02:29:11;11.65;;;5.43;;
72601;SDS011;60644;55.858;37.390;2024-02-21T02:31:37;7.47;;;3.43;;
72601;SDS011;60644;55.858;37.390;2024-02-21T02:34:06;11.73;;;5.03;;
72601;SDS011;60644;55.858;37.390;2024-02-21T02:36:32;14.87;;;6.07;;
72601;SDS011;60644;55.858;37.390;2024-02-21T02:38:58;10.90;;;4.30;;
72601;SDS011;60644;55.858;37.390;2024-02-21T02:41:24;10.38;;;3.97;;
72601;SDS011;60644;55.858;37.390;2024-02-21T02:43:50;12.57;;;5.33;;
72601;SDS011;60644;55.858;37.390;2024-02-21T02:46:15;13.88;;;5.43;;
72601;SDS011;60644;55.858;37.390;2024-02-21T02:48:41;15.17;;;6.07;;
72601;SDS011;60644;55.858;37.390;2024-02-21T02:51:07;12.43;;;4.80;;
72601;SDS011;60644;55.858;37.390;2024-02-21T02:53:32;12.88;;;5.22;;
72601;SDS011;60644;55.858;37.390;2024-02-21T02:55:58;13.73;;;5.33;;
72601;SDS011;60644;55.858;37.390;2024-02-21T02:58:24;14.43;;;5.57;;
72601;SDS011;60644;55.858;37.390;2024-02-21T03:00:49;17.37;;;6.17;;
72601;SDS011;60644;55.858;37.390;2024-02-21T03:03:15;8.93;;;3.67;;
72601;SDS011;60644;55.858;37.390;2024-02-21T03:05:40;12.60;;;5.65;;
72601;SDS011;60644;55.858;37.390;2024-02-21T03:08:06;12.00;;;5.33;;
72601;SDS011;60644;55.858;37.390;2024-02-21T03:10:32;12.98;;;4.97;;
72601;SDS011;60644;55.858;37.390;2024-02-21T03:12:58;12.23;;;4.97;;
72601;SDS011;60644;55.858;37.390;2024-02-21T03:15:24;11.97;;;5.37;;
72601;SDS011;60644;55.858;37.390;2024-02-21T03:17:50;16.60;;;5.75;;
72601;SDS011;60644;55.858;37.390;2024-02-21T03:20:16;14.23;;;5.73;;
72601;SDS011;60644;55.858;37.390;2024-02-21T03:22:42;13.73;;;5.78;;
72601;SDS011;60644;55.858;37.390;2024-02-21T03:25:08;12.57;;;5.15;;
72601;SDS011;60644;55.858;37.390;2024-02-21T03:27:38;13.35;;;5.03;;
72601;SDS011;60644;55.858;37.390;2024-02-21T03:30:04;12.80;;;6.10;;
72601;SDS011;60644;55.858;37.390;2024-02-21T03:32:32;13.82;;;5.00;;
72601;SDS011;60644;55.858;37.390;2024-02-21T03:34:58;11.97;;;5.10;;
72601;SDS011;60644;55.858;37.390;2024-02-21T03:37:24;12.82;;;4.88;;
72601;SDS011;60644;55.858;37.390;2024-02-21T03:39:49;13.40;;;5.33;;
72601;SDS011;60644;55.858;37.390;2024-02-21T03:42:15;14.10;;;6.72;;
72601;SDS011;60644;55.858;37.390;2024-02-21T03:44:41;17.30;;;6.90;;
72601;SDS011;60644;55.858;37.390;2024-02-21T03:47:06;16.65;;;6.43;;
72601;SDS011;60644;55.858;37.390;2024-02-21T03:49:35;14.23;;;5.50;;
72601;SDS011;60644;55.858;37.390;2024-02-21T03:52:01;16.30;;;5.47;;
72601;SDS011;60644;55.858;37.390;2024-02-21T03:54:27;14.95;;;5.85;;
72601;SDS011;60644;55.858;37.390;2024-02-21T03:56:53;11.43;;;5.93;;
72601;SDS011;60644;55.858;37.390;2024-02-21T03:59:18;14.60;;;6.13;;
72601;SDS011;60644;55.858;37.390;2024-02-21T04:01:44;17.40;;;7.00;;
72601;SDS011;60644;55.858;37.390;2024-02-21T04:04:10;15.37;;;5.60;;
72601;SDS011;60644;55.858;37.390;2024-02-21T04:06:36;13.70;;;5.97;;
72601;SDS011;60644;55.858;37.390;2024-02-21T04:09:02;15.10;;;6.10;;
72601;SDS011;60644;55.858;37.390;2024-02-21T04:14:49;13.38;;;5.63;;
72601;SDS011;60644;55.858;37.390;2024-02-21T04:17:15;15.10;;;5.60;;
72601;SDS011;60644;55.858;37.390;2024-02-21T04:19:40;14.00;;;5.45;;
72601;SDS011;60644;55.858;37.390;2024-02-21T04:22:06;15.40;;;6.50;;
72601;SDS011;60644;55.858;37.390;2024-02-21T04:24:32;13.77;;;5.72;;
72601;SDS011;60644;55.858;37.390;2024-02-21T04:26:57;12.50;;;5.60;;
72601;SDS011;60644;55.858;37.390;2024-02-21T04:29:23;15.38;;;6.40;;
72601;SDS011;60644;55.858;37.390;2024-02-21T04:31:49;15.27;;;6.38;;
72601;SDS011;60644;55.858;37.390;2024-02-21T04:34:14;16.80;;;7.53;;
72601;SDS011;60644;55.858;37.390;2024-02-21T04:36:40;16.02;;;6.00;;
72601;SDS011;60644;55.858;37.390;2024-02-21T04:39:06;12.63;;;5.83;;
72601;SDS011;60644;55.858;37.390;2024-02-21T04:41:32;17.98;;;6.85;;
72601;SDS011;60644;55.858;37.390;2024-02-21T04:43:57;14.00;;;5.70;;
72601;SDS011;60644;55.858;37.390;2024-02-21T04:46:23;15.52;;;7.07;;
72601;SDS011;60644;55.858;37.390;2024-02-21T04:48:49;15.60;;;6.53;;
72601;SDS011;60644;55.858;37.390;2024-02-21T04:51:14;13.53;;;6.07;;
72601;SDS011;60644;55.858;37.390;2024-02-21T04:53:43;17.13;;;7.55;;
72601;SDS011;60644;55.858;37.390;2024-02-21T04:56:09;15.68;;;6.70;;
72601;SDS011;60644;55.858;37.390;2024-02-21T04:58:39;15.90;;;7.43;;
72601;SDS011;60644;55.858;37.390;2024-02-21T05:01:04;14.43;;;6.43;;
72601;SDS011;60644;55.858;37.390;2024-02-21T05:03:30;14.32;;;5.47;;
72601;SDS011;60644;55.858;37.390;2024-02-21T05:05:56;14.20;;;6.00;;
72601;SDS011;60644;55.858;37.390;2024-02-21T05:08:21;15.15;;;6.53;;
72601;SDS011;60644;55.858;37.390;2024-02-21T05:10:47;15.20;;;6.73;;
72601;SDS011;60644;55.858;37.390;2024-02-21T05:13:13;15.68;;;6.13;;
72601;SDS011;60644;55.858;37.390;2024-02-21T05:15:39;14.33;;;5.40;;
72601;SDS011;60644;55.858;37.390;2024-02-21T05:18:04;14.87;;;5.70;;
72601;SDS011;60644;55.858;37.390;2024-02-21T05:20:30;16.65;;;7.93;;
72601;SDS011;60644;55.858;37.390;2024-02-21T05:22:56;16.23;;;8.13;;
72601;SDS011;60644;55.858;37.390;2024-02-21T05:25:21;16.42;;;6.20;;
72601;SDS011;60644;55.858;37.390;2024-02-21T05:27:47;14.20;;;6.60;;
72601;SDS011;60644;55.858;37.390;2024-02-21T05:30:13;14.98;;;6.28;;
72601;SDS011;60644;55.858;37.390;2024-02-21T05:32:39;16.30;;;6.85;;
72601;SDS011;60644;55.858;37.390;2024-02-21T05:35:05;14.33;;;6.20;;
72601;SDS011;60644;55.858;37.390;2024-02-21T05:37:31;13.95;;;6.13;;
72601;SDS011;60644;55.858;37.390;2024-02-21T05:39:56;18.57;;;8.10;;
72601;SDS011;60644;55.858;37.390;2024-02-21T05:42:22;17.10;;;8.20;;
72601;SDS011;60644;55.858;37.390;2024-02-21T05:44:48;18.30;;;8.43;;
72601;SDS011;60644;55.858;37.390;2024-02-21T05:47:13;15.50;;;6.07;;
72601;SDS011;60644;55.858;37.390;2024-02-21T05:49:40;12.00;;;5.65;;
72601;SDS011;60644;55.858;37.390;2024-02-21T05:52:06;15.38;;;6.15;;
72601;SDS011;60644;55.858;37.390;2024-02-21T05:54:32;14.80;;;5.90;;
72601;SDS011;60644;55.858;37.390;2024-02-21T05:56:58;16.10;;;6.45;;
72601;SDS011;60644;55.858;37.390;2024-02-21T05:59:23;10.87;;;5.57;;
72601;SDS011;60644;55.858;37.390;2024-02-21T06:01:56;13.65;;;5.18;;
72601;SDS011;60644;55.858;37.390;2024-02-21T06:04:23;15.13;;;6.60;;
72601;SDS011;60644;55.858;37.390;2024-02-21T06:06:48;17.77;;;7.35;;
72601;SDS011;60644;55.858;37.390;2024-02-21T06:09:14;17.10;;;7.83;;
72601;SDS011;60644;55.858;37.390;2024-02-21T06:11:40;14.57;;;6.20;;
72601;SDS011;60644;55.858;37.390;2024-02-21T06:14:06;18.90;;;7.77;;
72601;SDS011;60644;55.858;37.390;2024-02-21T06:16:31;14.50;;;6.22;;
72601;SDS011;60644;55.858;37.390;2024-02-21T06:18:57;17.97;;;7.97;;
72601;SDS011;60644;55.858;37.390;2024-02-21T06:21:23;18.92;;;7.38;;
72601;SDS011;60644;55.858;37.390;2024-02-21T06:23:48;16.10;;;6.47;;
72601;SDS011;60644;55.858;37.390;2024-02-21T06:26:14;12.63;;;5.50;;
72601;SDS011;60644;55.858;37.390;2024-02-21T06:28:39;15.63;;;5.95;;
72601;SDS011;60644;55.858;37.390;2024-02-21T06:31:05;15.17;;;6.13;;
72601;SDS011;60644;55.858;37.390;2024-02-21T06:33:31;14.45;;;5.88;;
72601;SDS011;60644;55.858;37.390;2024-02-21T06:35:56;17.33;;;6.83;;
72601;SDS011;60644;55.858;37.390;2024-02-21T06:38:22;16.27;;;5.93;;
72601;SDS011;60644;55.858;37.390;2024-02-21T06:40:48;17.80;;;6.95;;
72601;SDS011;60644;55.858;37.390;2024-02-21T06:43:17;14.95;;;6.30;;
72601;SDS011;60644;55.858;37.390;2024-02-21T06:45:44;14.37;;;6.47;;
72601;SDS011;60644;55.858;37.390;2024-02-21T06:48:13;16.05;;;6.43;;
72601;SDS011;60644;55.858;37.390;2024-02-21T06:50:38;14.85;;;5.95;;
72601;SDS011;60644;55.858;37.390;2024-02-21T06:53:04;16.20;;;6.97;;
72601;SDS011;60644;55.858;37.390;2024-02-21T06:55:30;15.27;;;6.37;;
72601;SDS011;60644;55.858;37.390;2024-02-21T06:57:55;14.07;;;6.90;;
72601;SDS011;60644;55.858;37.390;2024-02-21T07:00:21;17.13;;;7.23;;
72601;SDS011;60644;55.858;37.390;2024-02-21T07:02:48;11.60;;;5.18;;
72601;SDS011;60644;55.858;37.390;2024-02-21T07:05:13;14.38;;;6.88;;
72601;SDS011;60644;55.858;37.390;2024-02-21T07:07:39;13.30;;;5.57;;
72601;SDS011;60644;55.858;37.390;2024-02-21T07:10:06;15.60;;;6.70;;
72601;SDS011;60644;55.858;37.390;2024-02-21T07:12:31;17.20;;;7.65;;
72601;SDS011;60644;55.858;37.390;2024-02-21T07:14:57;14.20;;;6.13;;
72601;SDS011;60644;55.858;37.390;2024-02-21T07:17:23;14.02;;;6.10;;
72601;SDS011;60644;55.858;37.390;2024-02-21T07:19:48;15.50;;;6.00;;
72601;SDS011;60644;55.858;37.390;2024-02-21T07:22:14;18.20;;;7.15;;
72601;SDS011;60644;55.858;37.390;2024-02-21T07:24:40;16.73;;;6.90;;
72601;SDS011;60644;55.858;37.390;2024-02-21T07:27:05;17.80;;;7.43;;
72601;SDS011;60644;55.858;37.390;2024-02-21T07:29:31;17.10;;;6.40;;
72601;SDS011;60644;55.858;37.390;2024-02-21T07:32:00;12.32;;;4.97;;
72601;SDS011;60644;55.858;37.390;2024-02-21T07:34:26;17.17;;;6.70;;
72601;SDS011;60644;55.858;37.390;2024-02-21T07:36:52;14.23;;;7.43;;
72601;SDS011;60644;55.858;37.390;2024-02-21T07:39:21;15.27;;;6.70;;
72601;SDS011;60644;55.858;37.390;2024-02-21T07:41:46;16.20;;;6.83;;
72601;SDS011;60644;55.858;37.390;2024-02-21T07:44:13;13.07;;;5.00;;
72601;SDS011;60644;55.858;37.390;2024-02-21T07:46:39;13.20;;;5.38;;
72601;SDS011;60644;55.858;37.390;2024-02-21T07:49:04;15.13;;;6.80;;
72601;SDS011;60644;55.858;37.390;2024-02-21T07:51:30;17.10;;;7.90;;
72601;SDS011;60644;55.858;37.390;2024-02-21T07:53:56;16.67;;;6.60;;
72601;SDS011;60644;55.858;37.390;2024-02-21T07:56:21;13.13;;;5.67;;
72601;SDS011;60644;55.858;37.390;2024-02-21T07:58:47;16.30;;;6.85;;
72601;SDS011;60644;55.858;37.390;2024-02-21T08:01:18;14.03;;;6.43;;
72601;SDS011;60644;55.858;37.390;2024-02-21T08:03:43;13.43;;;4.95;;
72601;SDS011;60644;55.858;37.390;2024-02-21T08:06:11;15.77;;;7.30;;
72601;SDS011;60644;55.858;37.390;2024-02-21T08:08:37;16.90;;;7.38;;
72601;SDS011;60644;55.858;37.390;2024-02-21T08:11:02;16.35;;;7.00;;
72601;SDS011;60644;55.858;37.390;2024-02-21T08:13:28;15.07;;;7.43;;
72601;SDS011;60644;55.858;37.390;2024-02-21T08:15:54;14.30;;;7.40;;
72601;SDS011;60644;55.858;37.390;2024-02-21T08:18:20;15.70;;;7.03;;
72601;SDS011;60644;55.858;37.390;2024-02-21T08:20:45;16.53;;;6.83;;
72601;SDS011;60644;55.858;37.390;2024-02-21T08:23:11;13.88;;;6.93;;
72601;SDS011;60644;55.858;37.390;2024-02-21T08:25:36;18.37;;;8.03;;
72601;SDS011;60644;55.858;37.390;2024-02-21T08:28:02;17.10;;;7.22;;
72601;SDS011;60644;55.858;37.390;2024-02-21T08:30:28;10.07;;;4.77;;
72601;SDS011;60644;55.858;37.390;2024-02-21T08:32:54;16.13;;;8.00;;
72601;SDS011;60644;55.858;37.390;2024-02-21T08:35:20;18.70;;;7.32;;
72601;SDS011;60644;55.858;37.390;2024-02-21T08:37:49;15.63;;;6.80;;
72601;SDS011;60644;55.858;37.390;2024-02-21T08:40:15;16.23;;;7.22;;
72601;SDS011;60644;55.858;37.390;2024-02-21T08:42:44;15.13;;;6.75;;
72601;SDS011;60644;55.858;37.390;2024-02-21T08:45:11;17.13;;;7.93;;
72601;SDS011;60644;55.858;37.390;2024-02-21T08:47:39;18.83;;;7.63;;
72601;SDS011;60644;55.858;37.390;2024-02-21T08:50:05;16.25;;;7.22;;
72601;SDS011;60644;55.858;37.390;2024-02-21T08:52:31;16.05;;;7.15;;
72601;SDS011;60644;55.858;37.390;2024-02-21T08:54:57;18.75;;;6.82;;
72601;SDS011;60644;55.858;37.390;2024-02-21T08:57:23;14.53;;;5.67;;
72601;SDS011;60644;55.858;37.390;2024-02-21T08:59:49;16.05;;;7.78;;
72601;SDS011;60644;55.858;37.390;2024-02-21T09:02:14;15.97;;;6.60;;
72601;SDS011;60644;55.858;37.390;2024-02-21T09:04:43;17.63;;;8.57;;
72601;SDS011;60644;55.858;37.390;2024-02-21T09:07:12;19.67;;;7.78;;
72601;SDS011;60644;55.858;37.390;2024-02-21T09:09:37;16.40;;;7.73;;
72601;SDS011;60644;55.858;37.390;2024-02-21T09:12:06;19.35;;;8.60;;
72601;SDS011;60644;55.858;37.390;2024-02-21T09:14:32;17.65;;;6.93;;
72601;SDS011;60644;55.858;37.390;2024-02-21T09:16:58;16.77;;;7.63;;
72601;SDS011;60644;55.858;37.390;2024-02-21T09:19:24;13.60;;;6.70;;
72601;SDS011;60644;55.858;37.390;2024-02-21T09:21:49;19.98;;;9.15;;
72601;SDS011;60644;55.858;37.390;2024-02-21T09:24:15;17.38;;;6.97;;
72601;SDS011;60644;55.858;37.390;2024-02-21T09:26:41;18.20;;;7.83;;
72601;SDS011;60644;55.858;37.390;2024-02-21T09:29:06;14.73;;;6.95;;
72601;SDS011;60644;55.858;37.390;2024-02-21T09:31:33;16.60;;;6.47;;
72601;SDS011;60644;55.858;37.390;2024-02-21T09:33:59;18.23;;;8.17;;
72601;SDS011;60644;55.858;37.390;2024-02-21T09:36:24;18.60;;;7.82;;
72601;SDS011;60644;55.858;37.390;2024-02-21T09:38:50;18.35;;;8.55;;
72601;SDS011;60644;55.858;37.390;2024-02-21T09:43:44;18.85;;;7.30;;
72601;SDS011;60644;55.858;37.390;2024-02-21T09:46:18;20.10;;;7.05;;
72601;SDS011;60644;55.858;37.390;2024-02-21T09:51:15;15.70;;;6.77;;
72601;SDS011;60644;55.858;37.390;2024-02-21T09:53:42;18.20;;;7.28;;
72601;SDS011;60644;55.858;37.390;2024-02-21T09:56:08;13.85;;;6.18;;
72601;SDS011;60644;55.858;37.390;2024-02-21T09:58:34;16.95;;;7.32;;
72601;SDS011;60644;55.858;37.390;2024-02-21T10:01:00;14.97;;;6.33;;
72601;SDS011;60644;55.858;37.390;2024-02-21T10:03:26;17.75;;;7.32;;
72601;SDS011;60644;55.858;37.390;2024-02-21T10:05:51;13.38;;;6.75;;
72601;SDS011;60644;55.858;37.390;2024-02-21T10:08:17;17.17;;;6.85;;
72601;SDS011;60644;55.858;37.390;2024-02-21T10:10:43;15.10;;;7.03;;
72601;SDS011;60644;55.858;37.390;2024-02-21T10:13:10;15.00;;;6.68;;
72601;SDS011;60644;55.858;37.390;2024-02-21T10:15:36;16.38;;;7.40;;
72601;SDS011;60644;55.858;37.390;2024-02-21T10:18:02;13.03;;;6.40;;
72601;SDS011;60644;55.858;37.390;2024-02-21T10:20:32;16.55;;;6.45;;
72601;SDS011;60644;55.858;37.390;2024-02-21T10:23:03;12.50;;;4.93;;
72601;SDS011;60644;55.858;37.390;2024-02-21T10:25:36;13.95;;;6.70;;
72601;SDS011;60644;55.858;37.390;2024-02-21T10:28:12;15.88;;;6.60;;
72601;SDS011;60644;55.858;37.390;2024-02-21T10:30:37;16.13;;;6.60;;
72601;SDS011;60644;55.858;37.390;2024-02-21T10:33:03;14.23;;;6.05;;
72601;SDS011;60644;55.858;37.390;2024-02-21T10:35:31;15.95;;;6.82;;
72601;SDS011;60644;55.858;37.390;2024-02-21T10:37:58;13.93;;;5.90;;
72601;SDS011;60644;55.858;37.390;2024-02-21T10:40:27;15.32;;;5.95;;
72601;SDS011;60644;55.858;37.390;2024-02-21T10:42:57;17.77;;;6.95;;
72601;SDS011;60644;55.858;37.390;2024-02-21T10:45:29;15.90;;;6.25;;
72601;SDS011;60644;55.858;37.390;2024-02-21T10:48:15;18.25;;;7.30;;
72601;SDS011;60644;55.858;37.390;2024-02-21T10:50:57;17.10;;;7.40;;
72601;SDS011;60644;55.858;37.390;2024-02-21T10:56:34;15.55;;;7.13;;
72601;SDS011;60644;55.858;37.390;2024-02-21T10:58:53;15.80;;;6.40;;
72601;SDS011;60644;55.858;37.390;2024-02-21T11:01:20;14.65;;;5.97;;
72601;SDS011;60644;55.858;37.390;2024-02-21T11:03:47;13.67;;;4.87;;
72601;SDS011;60644;55.858;37.390;2024-02-21T11:06:14;14.15;;;5.88;;
72601;SDS011;60644;55.858;37.390;2024-02-21T11:08:40;15.05;;;6.00;;
72601;SDS011;60644;55.858;37.390;2024-02-21T11:11:06;14.80;;;5.55;;
72601;SDS011;60644;55.858;37.390;2024-02-21T11:13:34;14.90;;;6.13;;
72601;SDS011;60644;55.858;37.390;2024-02-21T11:16:10;14.85;;;6.38;;
72601;SDS011;60644;55.858;37.390;2024-02-21T11:18:37;13.53;;;6.30;;
72601;SDS011;60644;55.858;37.390;2024-02-21T11:21:02;14.38;;;5.57;;
72601;SDS011;60644;55.858;37.390;2024-02-21T11:23:30;15.07;;;5.78;;
72601;SDS011;60644;55.858;37.390;2024-02-21T11:26:09;13.13;;;5.38;;
72601;SDS011;60644;55.858;37.390;2024-02-21T11:28:35;15.38;;;7.13;;
72601;SDS011;60644;55.858;37.390;2024-02-21T11:31:13;17.97;;;7.53;;
72601;SDS011;60644;55.858;37.390;2024-02-21T11:33:40;16.60;;;6.07;;
72601;SDS011;60644;55.858;37.390;2024-02-21T11:36:07;15.05;;;6.00;;
72601;SDS011;60644;55.858;37.390;2024-02-21T11:38:33;15.68;;;6.90;;
72601;SDS011;60644;55.858;37.390;2024-02-21T11:40:58;12.90;;;6.10;;
72601;SDS011;60644;55.858;37.390;2024-02-21T11:43:24;14.32;;;6.60;;
72601;SDS011;60644;55.858;37.390;2024-02-21T11:45:51;16.73;;;6.77;;
72601;SDS011;60644;55.858;37.390;2024-02-21T11:48:26;16.10;;;7.13;;
72601;SDS011;60644;55.858;37.390;2024-02-21T11:50:56;14.90;;;6.55;;
72601;SDS011;60644;55.858;37.390;2024-02-21T11:53:22;11.25;;;4.53;;
72601;SDS011;60644;55.858;37.390;2024-02-21T11:55:49;13.30;;;5.72;;
72601;SDS011;60644;55.858;37.390;2024-02-21T11:58:17;12.90;;;5.43;;
72601;SDS011;60644;55.858;37.390;2024-02-21T12:00:43;12.30;;;5.10;;
72601;SDS011;60644;55.858;37.390;2024-02-21T12:03:09;14.37;;;6.30;;
72601;SDS011;60644;55.858;37.390;2024-02-21T12:05:34;15.38;;;6.03;;
72601;SDS011;60644;55.858;37.390;2024-02-21T12:08:00;13.13;;;5.97;;
72601;SDS011;60644;55.858;37.390;2024-02-21T12:10:26;16.88;;;7.05;;
72601;SDS011;60644;55.858;37.390;2024-02-21T12:13:05;12.63;;;5.25;;
72601;SDS011;60644;55.858;37.390;2024-02-21T12:15:31;12.32;;;5.50;;
72601;SDS011;60644;55.858;37.390;2024-02-21T12:17:57;13.53;;;5.70;;
72601;SDS011;60644;55.858;37.390;2024-02-21T12:20:26;13.90;;;6.18;;
72601;SDS011;60644;55.858;37.390;2024-02-21T12:22:52;13.82;;;6.13;;
72601;SDS011;60644;55.858;37.390;2024-02-21T12:25:20;13.10;;;6.30;;
72601;SDS011;60644;55.858;37.390;2024-02-21T12:27:48;16.73;;;6.88;;
72601;SDS011;60644;55.858;37.390;2024-02-21T12:30:14;15.30;;;6.13;;
72601;SDS011;60644;55.858;37.390;2024-02-21T12:32:43;15.00;;;6.38;;
72601;SDS011;60644;55.858;37.390;2024-02-21T12:35:08;18.00;;;6.13;;
72601;SDS011;60644;55.858;37.390;2024-02-21T12:37:34;23.30;;;7.40;;
72601;SDS011;60644;55.858;37.390;2024-02-21T12:40:00;15.25;;;6.20;;
72601;SDS011;60644;55.858;37.390;2024-02-21T12:42:26;16.13;;;6.63;;
72601;SDS011;60644;55.858;37.390;2024-02-21T12:44:52;15.15;;;5.43;;
72601;SDS011;60644;55.858;37.390;2024-02-21T12:47:20;15.30;;;6.05;;
72601;SDS011;60644;55.858;37.390;2024-02-21T12:49:49;13.30;;;6.13;;
72601;SDS011;60644;55.858;37.390;2024-02-21T12:52:14;13.93;;;6.10;;
72601;SDS011;60644;55.858;37.390;2024-02-21T12:54:40;16.15;;;6.47;;
72601;SDS011;60644;55.858;37.390;2024-02-21T12:57:09;16.50;;;6.23;;
72601;SDS011;60644;55.858;37.390;2024-02-21T12:59:34;15.80;;;6.82;;
72601;SDS011;60644;55.858;37.390;2024-02-21T13:02:00;15.10;;;6.80;;
72601;SDS011;60644;55.858;37.390;2024-02-21T13:04:26;13.63;;;5.85;;
72601;SDS011;60644;55.858;37.390;2024-02-21T13:06:51;13.60;;;6.10;;
72601;SDS011;60644;55.858;37.390;2024-02-21T13:09:20;14.48;;;6.38;;
72601;SDS011;60644;55.858;37.390;2024-02-21T13:11:46;16.08;;;6.70;;
72601;SDS011;60644;55.858;37.390;2024-02-21T13:14:11;14.30;;;6.40;;
72601;SDS011;60644;55.858;37.390;2024-02-21T13:16:37;13.33;;;6.00;;
72601;SDS011;60644;55.858;37.390;2024-02-21T13:19:06;15.00;;;7.30;;
72601;SDS011;60644;55.858;37.390;2024-02-21T13:21:33;15.45;;;6.68;;
72601;SDS011;60644;55.858;37.390;2024-02-21T13:23:59;15.82;;;6.95;;
72601;SDS011;60644;55.858;37.390;2024-02-21T13:26:25;15.03;;;7.20;;
72601;SDS011;60644;55.858;37.390;2024-02-21T13:28:51;15.90;;;6.60;;
72601;SDS011;60644;55.858;37.390;2024-02-21T13:31:16;16.07;;;6.60;;
72601;SDS011;60644;55.858;37.390;2024-02-21T13:33:42;15.98;;;6.47;;
72601;SDS011;60644;55.858;37.390;2024-02-21T13:36:10;12.40;;;5.15;;
72601;SDS011;60644;55.858;37.390;2024-02-21T13:38:35;15.57;;;5.87;;
72601;SDS011;60644;55.858;37.390;2024-02-21T13:41:01;14.75;;;6.35;;
72601;SDS011;60644;55.858;37.390;2024-02-21T13:43:27;15.93;;;6.70;;
72601;SDS011;60644;55.858;37.390;2024-02-21T13:45:59;15.90;;;6.95;;
72601;SDS011;60644;55.858;37.390;2024-02-21T13:48:25;16.48;;;6.25;;
72601;SDS011;60644;55.858;37.390;2024-02-21T13:50:52;16.00;;;7.57;;
72601;SDS011;60644;55.858;37.390;2024-02-21T13:53:18;14.00;;;6.47;;
72601;SDS011;60644;55.858;37.390;2024-02-21T13:55:44;16.63;;;7.05;;
72601;SDS011;60644;55.858;37.390;2024-02-21T13:58:10;14.50;;;7.28;;
72601;SDS011;60644;55.858;37.390;2024-02-21T14:00:35;18.40;;;7.10;;
72601;SDS011;60644;55.858;37.390;2024-02-21T14:03:02;16.47;;;6.40;;
72601;SDS011;60644;55.858;37.390;2024-02-21T14:05:27;17.52;;;7.45;;
72601;SDS011;60644;55.858;37.390;2024-02-21T14:07:53;15.38;;;6.80;;
72601;SDS011;60644;55.858;37.390;2024-02-21T14:10:20;13.70;;;6.13;;
72601;SDS011;60644;55.858;37.390;2024-02-21T14:12:46;16.67;;;6.57;;
72601;SDS011;60644;55.858;37.390;2024-02-21T14:15:13;15.48;;;7.22;;
72601;SDS011;60644;55.858;37.390;2024-02-21T14:17:39;19.77;;;7.97;;
72601;SDS011;60644;55.858;37.390;2024-02-21T14:20:06;14.40;;;5.87;;
72601;SDS011;60644;55.858;37.390;2024-02-21T14:22:32;11.52;;;5.25;;
72601;SDS011;60644;55.858;37.390;2024-02-21T14:24:58;15.70;;;5.60;;
72601;SDS011;60644;55.858;37.390;2024-02-21T14:27:24;19.33;;;7.25;;